createdAt,value
2022-08-11T00:06:30.846Z,100807.44
2022-08-11T00:16:35.459Z,100791.00
2022-08-11T00:26:40.626Z,100798.41
2022-08-11T00:36:52.379Z,100810.09
2022-08-11T00:47:19.877Z,100811.53
2022-08-11T00:58:21.736Z,100808.59
2022-08-11T01:09:21.921Z,100813.53
2022-08-11T01:20:46.744Z,100820.88
2022-08-11T01:31:08.111Z,100826.41
2022-08-11T01:42:12.321Z,100828.00
2022-08-11T01:52:30.428Z,100825.03
2022-08-11T02:02:54.029Z,100814.63
2022-08-11T02:13:02.427Z,100827.94
2022-08-11T02:24:07.144Z,100830.00
2022-08-11T02:34:29.779Z,100826.00
2022-08-11T02:44:49.106Z,100823.16
2022-08-11T02:55:48.814Z,100832.09
2022-08-11T03:06:06.975Z,100832.91
2022-08-11T03:16:37.651Z,100821.69
2022-08-11T03:26:54.861Z,100819.13
2022-08-11T03:37:53.960Z,100826.81
2022-08-11T03:48:21.278Z,100835.38
2022-08-11T03:58:58.756Z,100833.91
2022-08-11T04:09:49.148Z,100831.56
2022-08-11T04:20:48.827Z,100845.41
2022-08-11T04:31:10.083Z,100840.97
2022-08-11T04:42:02.700Z,100844.75
2022-08-11T04:53:19.608Z,100855.28
2022-08-11T05:03:47.394Z,100843.88
2022-08-11T05:14:23.058Z,100852.63
2022-08-11T05:24:56.961Z,100858.19
2022-08-11T05:35:07.419Z,100859.38
2022-08-11T05:45:52.760Z,100864.97
2022-08-11T05:56:18.319Z,100873.41
2022-08-11T06:06:22.896Z,100875.16
2022-08-11T06:16:29.552Z,100878.88
2022-08-11T06:26:40.819Z,100885.69
2022-08-11T06:37:14.013Z,100863.59
2022-08-11T06:47:20.604Z,100864.91
2022-08-11T06:57:43.514Z,100867.69
2022-08-11T07:08:49.347Z,100866.16
2022-08-11T07:19:16.577Z,100867.16
2022-08-11T07:29:21.390Z,100857.69
2022-08-11T07:39:30.642Z,100852.53
2022-08-11T07:49:56.463Z,100846.38
2022-08-11T08:00:19.662Z,100840.91
2022-08-11T08:10:41.642Z,100833.69
2022-08-11T08:20:50.576Z,100825.75
2022-08-11T08:30:56.207Z,100830.72
2022-08-11T08:41:01.772Z,100832.97
2022-08-11T08:51:33.608Z,100822.75
2022-08-11T09:01:59.552Z,100813.41
2022-08-11T09:12:05.494Z,100813.53
2022-08-11T09:22:24.824Z,100790.50
2022-08-11T09:32:31.481Z,100785.56
2022-08-11T09:42:54.730Z,100784.66
2022-08-11T09:53:35.754Z,100782.19
2022-08-11T10:03:27.671Z,100776.50
2022-08-11T10:14:31.821Z,100766.19
2022-08-11T10:24:37.759Z,100774.47
2022-08-11T10:34:42.665Z,100747.13
2022-08-11T10:44:59.262Z,100733.69
2022-08-11T10:55:21.364Z,100707.97
2022-08-11T11:05:31.748Z,100687.97
2022-08-11T11:15:55.363Z,100701.50
2022-08-11T11:26:27.076Z,100685.22
2022-08-11T11:36:44.926Z,100673.03
2022-08-11T11:46:51.688Z,100663.41
2022-08-11T11:56:57.633Z,100654.13
2022-08-11T12:07:16.919Z,100641.03
2022-08-11T12:17:24.422Z,100619.88
2022-08-11T12:27:32.445Z,100635.63
2022-08-11T12:37:42.019Z,100595.09
2022-08-11T12:48:57.738Z,100583.69
2022-08-11T12:58:32.971Z,100577.16
2022-08-11T13:08:42.893Z,100569.19
2022-08-11T13:18:47.290Z,100553.50
2022-08-11T13:28:53.379Z,100549.72
2022-08-11T13:38:58.663Z,100537.81
2022-08-11T13:49:04.839Z,100521.34
2022-08-11T13:59:09.942Z,100521.75
2022-08-11T14:09:24.575Z,100489.56
2022-08-11T14:19:30.618Z,100479.44
2022-08-11T14:29:45.268Z,100467.81
2022-08-11T14:40:00.738Z,100471.16
2022-08-11T14:50:17.921Z,100454.56
2022-08-11T15:00:21.930Z,100452.28
2022-08-11T15:10:27.927Z,100432.25
2022-08-11T15:20:53.775Z,100419.94
2022-08-11T15:31:18.299Z,100414.50
2022-08-11T15:41:42.923Z,100396.97
2022-08-11T15:51:52.085Z,100403.78
2022-08-11T16:02:27.820Z,100390.16
2022-08-11T16:12:38.226Z,100367.66
2022-08-11T16:23:01.229Z,100366.06
2022-08-11T16:33:48.890Z,100355.41
2022-08-11T16:43:53.907Z,100354.84
2022-08-11T16:54:05.219Z,100348.53
2022-08-11T17:04:36.100Z,100334.88
2022-08-11T17:14:46.530Z,100341.91
2022-08-11T17:24:52.518Z,100324.91
2022-08-11T17:35:31.014Z,100324.63
2022-08-11T17:45:52.367Z,100330.50
2022-08-11T17:56:16.083Z,100346.53
2022-08-11T18:06:22.507Z,100361.16
2022-08-11T18:16:59.701Z,100374.78
2022-08-11T18:27:27.472Z,100379.22
2022-08-11T18:37:53.661Z,100377.06
2022-08-11T18:48:21.963Z,100378.84
2022-08-11T18:58:51.601Z,100392.44
2022-08-11T19:09:18.448Z,100399.03
2022-08-11T19:19:47.189Z,100416.56
2022-08-11T19:30:13.967Z,100422.19
2022-08-11T19:40:38.646Z,100428.66
2022-08-11T19:51:00.976Z,100422.44
2022-08-11T20:01:24.575Z,100437.66
2022-08-11T20:11:49.736Z,100443.34
2022-08-11T20:22:14.780Z,100448.13
2022-08-11T20:32:36.399Z,100462.25
2022-08-11T20:43:01.133Z,100468.59
2022-08-11T20:53:22.715Z,100472.44
2022-08-11T21:03:54.538Z,100460.81
2022-08-11T21:14:23.538Z,100466.41
2022-08-11T21:24:50.442Z,100476.34
2022-08-11T21:35:14.121Z,100478.41
2022-08-11T21:45:39.186Z,100494.25
2022-08-11T21:56:00.799Z,100498.53
2022-08-11T22:06:24.398Z,100510.00
2022-08-11T22:16:45.899Z,100505.91
2022-08-11T22:27:08.628Z,100508.94
2022-08-11T22:37:30.806Z,100501.47
2022-08-11T22:47:54.591Z,100516.22
2022-08-11T22:58:16.371Z,100513.69
2022-08-11T23:08:41.887Z,100522.28
2022-08-11T23:19:04.081Z,100522.25
2022-08-11T23:29:29.820Z,100517.13
2022-08-11T23:39:51.529Z,100505.94
2022-08-11T23:50:16.308Z,100501.63
